Velva, ND (58790)

8:01 AM CDT on July 29, 2015 (GMT -0500)
KD0ASL WX | | Change Station
CLOSE
Current Station
Personal Weather Station
Location: Granville, ND
Elevation: 1539 ft
Nearby Weather Stations
Active Advisory: Wind Advisory Active Notice: Public Information Statement

Elev 1539 ft 48.22 °N, 100.91 °W | Updated 10 minutes ago

Overcast
Overcast
63.5 °F
Feels Like 63.5 °F
N
6.8
Wind Variable Wind from WSW

Today
High -- | Low -- °F
--% Chance of Precip.
Yesterday
High -- | Low -- °F
Precip. -- in
6:15 AM 9:23 PM
Waxing Gibbous, 95% visible
Pressure 29.88 in
Visibility 10.0 miles
Clouds Clear
Dew Point 55 °F
Humidity 73%
Rainfall 0.11 in
Snow Depth Not available.
UV 1 out of 12
Pollen 7.60 out of 12
Air Quality Not available.
Flu Activity Not available.
METAR KMOT 291254Z 25016KT 10SM CLR 17/11 A2988 RMK AO2 SLP119 T01670106

More Conditions Fewer Conditions

Pressure 29.88 in
Visibility 10.0 miles
Clouds Clear
Dew Point 55 °F
Humidity 73%
Rainfall 0.11 in
Snow Depth Not available.
UV 1 out of 12
Pollen 7.60 out of 12
Air Quality Not available.
Flu Activity Not available.
METAR KMOT 291254Z 25016KT 10SM CLR 17/11 A2988 RMK AO2 SLP119 T01670106

More Conditions Fewer Conditions

10-Day Weather Forecast

×

Almanac

Astronomy

Jul. 29, 2015 Rise Set
Actual Time
Civil Twilight
Nautical Twilight
Astronomical Twilight
Moon
Length of Visible Light
Length of Day
Tomorrow will be .
, % of the Moon is Illuminated

Today's Extremes

State Highs State Lows

Community

WunderPhotos

Upload Photos

1,842,089 photos uploaded!

WunderBlogs® & News

Nearby

Air Quality

  Air Quality AQ Index Pollutant
Not available.

Snow Depth

Station Depth Elevation

Earthquake Activity

City Distance Mag. Time & Date
Minimum magnitude displayed is 2.5.

Coastal Water Temperatures

Place Temperature

Stations

Nearby Weather Stations

Station Location Temp. Windchill Dew Point Humidity Wind Precip. Elev Updated Type
                   
Wind Advisory
Statement as of 2:53 AM CDT on July 29, 2015

... Wind Advisory remains in effect until 7 PM CDT this evening...

* timing... through early Wednesday evening.

* Winds... west winds sustained at 30 mph with gusts up to 45 mph.

* Impacts... travel will be hazardous.

Precautionary/preparedness actions...

A Wind Advisory means that sustained winds of 30 mph are
expected. Winds this strong can make driving difficult...
especially for high profile vehicles. Use extra caution.



KS/jjs